createdAt,value
2022-12-04T00:00:12.253Z,5.15
2022-12-04T00:02:39.544Z,4.65
2022-12-04T00:05:07.864Z,5.03
2022-12-04T00:07:38.242Z,4.60
2022-12-04T00:10:05.666Z,4.47
2022-12-04T00:12:32.583Z,5.32
2022-12-04T00:17:49.628Z,4.65
2022-12-04T00:20:17.201Z,5.28
2022-12-04T00:22:44.101Z,5.57
2022-12-04T00:25:10.942Z,4.88
2022-12-04T00:27:37.880Z,5.32
2022-12-04T00:30:05.371Z,4.93
2022-12-04T00:32:32.229Z,4.90
2022-12-04T00:34:59.165Z,5.10
2022-12-04T00:37:25.937Z,5.53
2022-12-04T00:39:53.304Z,6.53
2022-12-04T00:42:20.306Z,5.78
2022-12-04T00:44:47.195Z,5.47
2022-12-04T00:47:14.148Z,4.93
2022-12-04T00:49:40.837Z,5.25
2022-12-04T00:52:07.788Z,5.68
2022-12-04T00:54:34.644Z,5.40
2022-12-04T00:57:01.568Z,5.57
2022-12-04T00:59:28.594Z,4.95
2022-12-04T01:01:55.323Z,5.43
2022-12-04T01:04:22.362Z,4.78
2022-12-04T01:06:49.547Z,5.45
2022-12-04T01:09:16.498Z,6.22
2022-12-04T01:11:43.316Z,5.50
2022-12-04T01:14:10.131Z,5.05
2022-12-04T01:16:39.317Z,5.40
2022-12-04T01:19:09.549Z,5.28
2022-12-04T01:21:37.550Z,4.70
2022-12-04T01:24:06.273Z,4.45
2022-12-04T01:26:33.429Z,4.18
2022-12-04T01:29:00.268Z,4.07
2022-12-04T01:31:27.551Z,3.80
2022-12-04T01:33:54.487Z,4.05
2022-12-04T01:36:24.711Z,4.20
2022-12-04T01:38:51.652Z,3.15
2022-12-04T01:41:22.308Z,3.58
2022-12-04T01:44:19.320Z,3.30
2022-12-04T01:46:50.375Z,3.40
2022-12-04T01:49:25.997Z,3.40
2022-12-04T01:51:58.404Z,3.05
2022-12-04T01:54:30.336Z,3.15
2022-12-04T01:57:03.019Z,2.70
2022-12-04T01:59:35.608Z,2.85
2022-12-04T02:02:12.300Z,3.13
2022-12-04T02:04:40.640Z,2.83
2022-12-04T02:07:07.436Z,2.33
2022-12-04T02:09:35.913Z,2.70
2022-12-04T02:12:14.605Z,2.80
2022-12-04T02:14:48.721Z,2.90
2022-12-04T02:17:35.883Z,2.83
2022-12-04T02:20:33.965Z,2.78
2022-12-04T02:23:19.233Z,2.50
2022-12-04T02:28:39.842Z,2.03
2022-12-04T02:31:11.703Z,2.00
2022-12-04T02:33:48.329Z,2.25
2022-12-04T02:36:30.069Z,2.30
2022-12-04T02:39:24.366Z,2.00
2022-12-04T02:42:32.735Z,2.00
2022-12-04T02:45:17.597Z,2.10
2022-12-04T02:47:46.744Z,1.73
2022-12-04T02:50:18.255Z,1.90
2022-12-04T02:53:10.406Z,1.75
2022-12-04T02:55:48.557Z,1.98
2022-12-04T02:58:23.981Z,1.70
2022-12-04T03:00:53.266Z,1.50
2022-12-04T03:03:29.587Z,1.73
2022-12-04T03:06:02.295Z,1.83
2022-12-04T03:08:45.770Z,2.00
2022-12-04T03:11:12.853Z,1.90
2022-12-04T03:13:46.418Z,1.88
2022-12-04T03:16:19.035Z,2.20
2022-12-04T03:18:59.226Z,1.80
2022-12-04T03:21:35.548Z,1.65
2022-12-04T03:24:24.169Z,2.20
2022-12-04T03:26:56.466Z,2.30
2022-12-04T03:29:31.877Z,1.95
2022-12-04T03:32:21.719Z,1.85
2022-12-04T03:34:53.510Z,3.00
2022-12-04T03:37:30.755Z,2.33
2022-12-04T03:40:21.002Z,2.47
2022-12-04T03:42:56.865Z,1.88
2022-12-04T03:45:31.393Z,2.05
2022-12-04T03:48:22.658Z,2.05
2022-12-04T03:51:00.803Z,1.55
2022-12-04T03:53:36.965Z,2.20
2022-12-04T03:56:19.334Z,2.22
2022-12-04T03:58:51.545Z,2.05
2022-12-04T04:01:23.342Z,2.03
2022-12-04T04:03:54.175Z,2.30
2022-12-04T04:06:26.989Z,2.10
2022-12-04T04:08:59.114Z,2.13
2022-12-04T04:11:31.458Z,2.22
2022-12-04T04:14:24.255Z,1.95
2022-12-04T04:17:18.187Z,2.25
2022-12-04T04:20:08.877Z,2.08
2022-12-04T04:22:56.292Z,2.10
2022-12-04T04:25:25.945Z,2.55
2022-12-04T04:27:54.177Z,2.38
2022-12-04T04:30:21.756Z,2.20
2022-12-04T04:32:51.283Z,2.10
2022-12-04T04:35:22.618Z,2.13
2022-12-04T04:38:18.589Z,2.65
2022-12-04T04:40:59.975Z,2.38
2022-12-04T04:43:52.040Z,2.25
2022-12-04T04:46:30.069Z,2.45
2022-12-04T04:49:01.257Z,2.10
2022-12-04T04:51:31.389Z,2.28
2022-12-04T04:54:00.880Z,2.38
2022-12-04T04:56:28.031Z,2.58
2022-12-04T04:58:54.982Z,2.45
2022-12-04T05:01:27.256Z,2.40
2022-12-04T05:03:54.317Z,2.30
2022-12-04T05:06:21.131Z,2.13
2022-12-04T05:08:49.515Z,2.60
2022-12-04T05:11:17.865Z,2.38
2022-12-04T05:13:44.734Z,2.60
2022-12-04T05:16:15.525Z,2.80
2022-12-04T05:19:01.324Z,2.47
2022-12-04T05:21:28.112Z,2.83
2022-12-04T05:23:54.945Z,2.20
2022-12-04T05:26:21.920Z,2.70
2022-12-04T05:28:48.838Z,2.38
2022-12-04T05:31:15.895Z,2.40
2022-12-04T05:33:42.965Z,2.72
2022-12-04T05:36:11.630Z,2.60
2022-12-04T05:38:38.613Z,2.58
2022-12-04T05:41:06.581Z,2.85
2022-12-04T05:43:34.388Z,2.55
2022-12-04T05:46:06.639Z,2.30
2022-12-04T05:48:35.475Z,2.75
2022-12-04T05:51:10.190Z,2.65
2022-12-04T05:53:38.177Z,3.08
2022-12-04T05:56:06.415Z,3.05
2022-12-04T05:58:37.410Z,3.03
2022-12-04T06:01:23.153Z,2.78
2022-12-04T06:03:49.981Z,2.88
2022-12-04T06:06:22.758Z,2.85
2022-12-04T06:08:55.697Z,2.83
2022-12-04T06:11:26.089Z,2.90
2022-12-04T06:13:53.672Z,3.00
2022-12-04T06:16:32.409Z,2.95
2022-12-04T06:19:02.743Z,2.75
2022-12-04T06:21:32.528Z,2.85
2022-12-04T06:23:59.696Z,2.75
2022-12-04T06:26:27.145Z,3.10
2022-12-04T06:28:56.539Z,2.75
2022-12-04T06:31:24.418Z,3.15
2022-12-04T06:33:52.775Z,3.30
2022-12-04T06:36:23.948Z,2.53
2022-12-04T06:38:51.961Z,3.10
2022-12-04T06:41:20.946Z,2.88
2022-12-04T06:43:48.881Z,3.13
2022-12-04T06:46:21.574Z,2.55
2022-12-04T06:48:49.061Z,2.50
2022-12-04T06:51:18.912Z,2.58
2022-12-04T06:53:46.564Z,3.28
2022-12-04T06:56:18.218Z,3.00
2022-12-04T06:58:51.130Z,2.60
2022-12-04T07:01:20.891Z,3.10
2022-12-04T07:03:51.652Z,3.25
2022-12-04T07:06:23.290Z,2.78
2022-12-04T07:08:54.273Z,3.20
2022-12-04T07:11:22.454Z,2.97
2022-12-04T07:13:50.306Z,3.00
2022-12-04T07:16:21.064Z,2.85
2022-12-04T07:18:53.926Z,3.10
2022-12-04T07:21:24.846Z,3.33
2022-12-04T07:23:55.601Z,2.80
2022-12-04T07:26:24.365Z,2.88
2022-12-04T07:28:51.666Z,2.80
2022-12-04T07:31:21.341Z,3.05
2022-12-04T07:33:49.540Z,2.60
2022-12-04T07:36:19.465Z,2.38
2022-12-04T07:38:46.908Z,3.00
2022-12-04T07:41:14.671Z,2.83
2022-12-04T07:43:42.148Z,2.80
2022-12-04T07:46:12.550Z,2.22
2022-12-04T07:48:40.140Z,3.00
2022-12-04T07:51:16.278Z,2.53
2022-12-04T07:53:44.118Z,3.20
2022-12-04T07:56:12.676Z,2.90
2022-12-04T07:58:40.763Z,2.90
2022-12-04T08:01:22.270Z,2.72
2022-12-04T08:03:51.791Z,3.03
2022-12-04T08:06:21.034Z,2.97
2022-12-04T08:08:48.550Z,2.53
2022-12-04T08:11:18.281Z,3.08
2022-12-04T08:13:45.889Z,2.83
2022-12-04T08:16:14.820Z,3.00
2022-12-04T08:18:46.874Z,3.30
2022-12-04T08:21:16.297Z,2.72
2022-12-04T08:23:44.196Z,2.63
2022-12-04T08:26:12.210Z,3.05
2022-12-04T08:28:40.964Z,2.63
2022-12-04T08:31:12.235Z,3.05
2022-12-04T08:33:40.170Z,3.05
2022-12-04T08:36:09.148Z,3.25
2022-12-04T08:38:36.785Z,2.92
2022-12-04T08:41:07.529Z,3.05
2022-12-04T08:43:34.619Z,3.20
2022-12-04T08:46:05.534Z,2.80
2022-12-04T08:48:33.610Z,3.30
2022-12-04T08:51:01.377Z,3.05
2022-12-04T08:53:28.289Z,3.17
2022-12-04T08:55:55.082Z,3.17
2022-12-04T08:58:22.117Z,2.90
2022-12-04T09:00:49.748Z,2.55
2022-12-04T09:03:18.654Z,2.72
2022-12-04T09:05:46.249Z,3.28
2022-12-04T09:08:14.850Z,2.65
2022-12-04T09:10:42.082Z,3.17
2022-12-04T09:13:09.319Z,3.05
2022-12-04T09:15:40.124Z,2.60
2022-12-04T09:18:09.870Z,3.17
2022-12-04T09:20:37.453Z,2.83
2022-12-04T09:23:05.733Z,3.03
2022-12-04T09:25:36.740Z,2.67
2022-12-04T09:28:04.440Z,2.80
2022-12-04T09:30:31.765Z,3.08
2022-12-04T09:32:58.737Z,2.95
2022-12-04T09:35:25.812Z,2.53
2022-12-04T09:37:52.662Z,2.80
2022-12-04T09:40:38.005Z,2.90
2022-12-04T09:43:35.066Z,2.85
2022-12-04T09:46:10.399Z,2.95
2022-12-04T09:48:42.057Z,2.72
2022-12-04T09:51:18.917Z,2.80
2022-12-04T09:53:51.741Z,3.00
2022-12-04T09:56:20.100Z,3.13
2022-12-04T09:58:54.024Z,3.05
2022-12-04T10:01:29.381Z,3.27
2022-12-04T10:04:01.123Z,3.10
2022-12-04T10:07:11.000Z,2.42
2022-12-04T10:10:28.526Z,2.95
2022-12-04T10:13:07.635Z,2.80
2022-12-04T10:15:59.470Z,3.13
2022-12-04T10:18:49.016Z,3.00
2022-12-04T10:21:36.709Z,2.45
2022-12-04T10:24:20.805Z,3.15
2022-12-04T10:26:49.333Z,2.60
2022-12-04T10:29:24.566Z,2.92
2022-12-04T10:31:56.329Z,3.30
2022-12-04T10:34:29.941Z,2.95
2022-12-04T10:37:06.581Z,2.65
2022-12-04T10:39:39.862Z,2.50
2022-12-04T10:42:27.577Z,2.92
2022-12-04T10:44:54.621Z,3.28
2022-12-04T10:47:24.836Z,2.65
2022-12-04T10:50:02.577Z,2.70
2022-12-04T10:52:29.647Z,2.58
2022-12-04T10:55:00.954Z,3.58
2022-12-04T10:57:41.148Z,4.70
2022-12-04T11:00:32.852Z,2.60
2022-12-04T11:03:03.112Z,2.63
2022-12-04T11:05:35.005Z,3.10
2022-12-04T11:08:05.171Z,2.80
2022-12-04T11:10:39.209Z,3.03
2022-12-04T11:13:18.538Z,2.58
2022-12-04T11:15:51.273Z,2.90
2022-12-04T11:18:20.116Z,3.00
2022-12-04T11:21:02.852Z,3.40
2022-12-04T11:23:34.053Z,3.03
2022-12-04T11:26:05.976Z,2.80
2022-12-04T11:28:42.888Z,2.97
2022-12-04T11:31:16.090Z,2.88
2022-12-04T11:33:52.526Z,2.58
2022-12-04T11:36:24.558Z,2.70
2022-12-04T11:38:54.680Z,2.55
2022-12-04T11:41:27.427Z,2.80
2022-12-04T11:43:59.583Z,2.80
2022-12-04T11:46:30.399Z,2.80
2022-12-04T11:48:57.276Z,3.15
2022-12-04T11:51:42.866Z,2.90
2022-12-04T11:54:18.480Z,3.20
2022-12-04T11:56:50.296Z,2.95
2022-12-04T11:59:38.798Z,3.53
2022-12-04T12:02:23.557Z,3.00
2022-12-04T12:05:16.443Z,3.25
2022-12-04T12:10:53.202Z,3.13
2022-12-04T12:13:51.664Z,2.72
2022-12-04T12:16:29.088Z,2.45
2022-12-04T12:19:16.218Z,2.83
2022-12-04T12:22:21.944Z,2.58
2022-12-04T12:24:55.048Z,2.58
2022-12-04T12:27:34.023Z,2.80
2022-12-04T12:30:10.394Z,3.30
2022-12-04T12:32:55.285Z,2.70
2022-12-04T12:35:31.390Z,3.22
2022-12-04T12:38:02.969Z,2.63
2022-12-04T12:40:38.751Z,3.10
2022-12-04T12:43:33.249Z,2.20
2022-12-04T12:46:23.887Z,3.03
2022-12-04T12:49:21.011Z,3.00
2022-12-04T12:52:01.324Z,2.85
2022-12-04T12:54:46.300Z,2.90
2022-12-04T12:57:35.910Z,2.90
2022-12-04T13:00:14.811Z,2.70
2022-12-04T13:02:47.608Z,2.75
2022-12-04T13:05:22.104Z,2.42
2022-12-04T13:08:22.265Z,2.95
2022-12-04T13:11:06.060Z,2.88
2022-12-04T13:13:43.094Z,2.85
2022-12-04T13:16:17.517Z,3.00
2022-12-04T13:18:51.120Z,4.32
2022-12-04T13:22:01.076Z,3.10
2022-12-04T13:24:56.969Z,2.80
2022-12-04T13:27:42.482Z,3.10
2022-12-04T13:30:16.041Z,3.05
2022-12-04T13:32:52.017Z,3.63
2022-12-04T13:35:57.723Z,2.95
2022-12-04T13:38:36.505Z,2.70
2022-12-04T13:41:07.350Z,3.40
2022-12-04T13:43:44.484Z,2.85
2022-12-04T13:46:34.934Z,2.92
2022-12-04T13:49:32.722Z,3.45
2022-12-04T13:52:02.435Z,3.40
2022-12-04T13:54:34.898Z,3.28
2022-12-04T13:57:16.908Z,3.15
2022-12-04T13:59:44.444Z,3.88
2022-12-04T14:02:29.195Z,3.72
2022-12-04T14:05:10.635Z,3.70
2022-12-04T14:07:59.947Z,3.55
2022-12-04T14:10:37.045Z,3.45
2022-12-04T14:13:27.897Z,3.58
2022-12-04T14:16:17.376Z,3.25
2022-12-04T14:18:50.132Z,3.25
2022-12-04T14:21:17.090Z,3.22
2022-12-04T14:23:44.308Z,3.95
2022-12-04T14:29:47.706Z,3.75
2022-12-04T14:32:23.747Z,3.33
2022-12-04T14:34:51.013Z,3.78
2022-12-04T14:37:28.125Z,3.00
2022-12-04T14:39:57.096Z,3.35
2022-12-04T14:42:27.260Z,3.22
2022-12-04T14:45:00.504Z,3.22
2022-12-04T14:47:59.460Z,3.30
2022-12-04T14:50:42.621Z,3.75
2022-12-04T14:53:09.436Z,3.50
2022-12-04T14:56:03.369Z,3.50
2022-12-04T14:58:37.390Z,3.10
2022-12-04T15:01:07.346Z,3.20
2022-12-04T15:03:44.495Z,3.40
2022-12-04T15:06:22.139Z,3.53
2022-12-04T15:08:51.679Z,3.75
2022-12-04T15:11:39.444Z,3.67
2022-12-04T15:14:16.248Z,3.80
2022-12-04T15:16:43.556Z,3.40
2022-12-04T15:19:17.948Z,3.70
2022-12-04T15:21:45.134Z,4.05
2022-12-04T15:24:23.469Z,3.80
2022-12-04T15:26:53.124Z,4.68
2022-12-04T15:29:24.647Z,3.85
2022-12-04T15:31:57.091Z,3.53
2022-12-04T15:34:40.729Z,4.10
2022-12-04T15:37:13.486Z,3.25
2022-12-04T15:39:40.977Z,3.95
2022-12-04T15:42:16.969Z,3.78
2022-12-04T15:45:10.202Z,3.80
2022-12-04T15:47:43.061Z,4.68
2022-12-04T15:50:16.065Z,3.78
2022-12-04T15:53:05.201Z,3.88
2022-12-04T15:55:51.131Z,3.75
2022-12-04T15:58:23.847Z,3.50
2022-12-04T16:01:21.403Z,3.35
2022-12-04T16:03:51.311Z,3.75
2022-12-04T16:06:27.223Z,3.30
2022-12-04T16:08:59.893Z,3.03
2022-12-04T16:11:39.301Z,3.13
2022-12-04T16:14:15.978Z,3.45
2022-12-04T16:16:46.901Z,3.30
2022-12-04T16:19:36.458Z,3.28
2022-12-04T16:22:14.908Z,3.30
2022-12-04T16:24:42.006Z,3.17
2022-12-04T16:27:29.050Z,4.15
2022-12-04T16:29:55.726Z,3.30
2022-12-04T16:32:27.704Z,3.67
2022-12-04T16:34:55.165Z,3.13
2022-12-04T16:37:23.184Z,3.35
2022-12-04T16:39:50.301Z,3.03
2022-12-04T16:42:29.002Z,3.40
2022-12-04T16:44:56.600Z,3.38
2022-12-04T16:47:23.818Z,3.03
2022-12-04T16:49:52.100Z,3.30
2022-12-04T16:52:19.889Z,3.58
2022-12-04T16:54:47.070Z,2.85
2022-12-04T16:57:13.883Z,3.33
2022-12-04T16:59:40.710Z,3.47
2022-12-04T17:02:16.370Z,3.25
2022-12-04T17:04:43.298Z,3.45
2022-12-04T17:07:10.292Z,3.67
2022-12-04T17:09:37.120Z,2.88
2022-12-04T17:12:03.876Z,3.17
2022-12-04T17:14:30.618Z,3.13
2022-12-04T17:16:58.896Z,3.78
2022-12-04T17:19:25.617Z,3.30
2022-12-04T17:21:52.561Z,3.35
2022-12-04T17:24:19.486Z,3.08
2022-12-04T17:26:46.284Z,3.70
2022-12-04T17:29:13.995Z,3.60
2022-12-04T17:31:41.025Z,3.70
2022-12-04T17:34:07.889Z,3.63
2022-12-04T17:36:34.784Z,3.55
2022-12-04T17:39:02.178Z,3.90
2022-12-04T17:41:29.266Z,3.40
2022-12-04T17:43:56.016Z,3.58
2022-12-04T17:46:24.740Z,3.90
2022-12-04T17:48:52.268Z,4.00
2022-12-04T17:51:21.962Z,3.67
2022-12-04T17:53:48.958Z,3.88
2022-12-04T17:56:19.331Z,3.40
2022-12-04T17:58:47.549Z,3.22
2022-12-04T18:01:18.915Z,3.20
2022-12-04T18:03:53.361Z,2.78
2022-12-04T18:06:25.118Z,3.88
2022-12-04T18:08:52.761Z,3.20
2022-12-04T18:11:22.766Z,4.10
2022-12-04T18:13:54.681Z,3.80
2022-12-04T18:16:22.383Z,3.60
2022-12-04T18:18:50.791Z,3.15
2022-12-04T18:21:17.751Z,3.33
2022-12-04T18:23:46.034Z,3.38
2022-12-04T18:26:24.712Z,3.60
2022-12-04T18:28:53.030Z,3.00
2022-12-04T18:31:20.538Z,3.22
2022-12-04T18:33:48.314Z,3.53
2022-12-04T18:36:20.717Z,3.28
2022-12-04T18:38:52.754Z,3.38
2022-12-04T18:41:19.729Z,3.67
2022-12-04T18:43:46.736Z,3.50
2022-12-04T18:46:16.664Z,3.83
2022-12-04T18:48:44.962Z,3.97
2022-12-04T18:51:15.200Z,3.83
2022-12-04T18:53:42.722Z,4.13
2022-12-04T18:56:09.800Z,4.20
2022-12-04T18:58:36.684Z,4.72
2022-12-04T19:01:08.079Z,4.80
2022-12-04T19:03:35.157Z,4.30
2022-12-04T19:06:02.962Z,5.53
2022-12-04T19:08:34.225Z,6.38
2022-12-04T19:11:12.131Z,5.22
2022-12-04T19:13:39.773Z,4.93
2022-12-04T19:16:15.087Z,3.90
2022-12-04T19:18:42.922Z,4.18
2022-12-04T19:21:09.826Z,4.30
2022-12-04T19:23:36.949Z,4.82
2022-12-04T19:26:04.429Z,5.07
2022-12-04T19:28:31.733Z,4.65
2022-12-04T19:30:58.752Z,4.25
2022-12-04T19:33:26.468Z,4.30
2022-12-04T19:36:04.747Z,3.72
2022-12-04T19:38:32.944Z,4.35
2022-12-04T19:41:05.331Z,4.00
2022-12-04T19:43:32.339Z,3.90
2022-12-04T19:45:59.457Z,3.78
2022-12-04T19:48:27.493Z,3.72
2022-12-04T19:50:54.657Z,4.15
2022-12-04T19:53:22.687Z,3.70
2022-12-04T19:55:49.662Z,3.97
2022-12-04T19:58:16.473Z,4.05
2022-12-04T20:00:43.429Z,4.32
2022-12-04T20:03:10.356Z,4.70
2022-12-04T20:05:37.882Z,4.65
2022-12-04T20:10:30.783Z,4.63
2022-12-04T20:12:57.734Z,4.93
2022-12-04T20:15:27.378Z,4.22
2022-12-04T20:17:54.118Z,4.78
2022-12-04T20:20:20.978Z,4.65
2022-12-04T20:22:49.231Z,4.30
2022-12-04T20:25:16.028Z,3.95
2022-12-04T20:27:42.797Z,3.90
2022-12-04T20:30:11.679Z,3.30
2022-12-04T20:32:38.690Z,3.35
2022-12-04T20:35:07.290Z,3.97
2022-12-04T20:37:36.033Z,4.10
2022-12-04T20:40:04.826Z,3.67
2022-12-04T20:42:33.608Z,4.00
2022-12-04T20:45:00.884Z,3.42
2022-12-04T20:47:28.432Z,3.33
2022-12-04T20:49:55.696Z,4.03
2022-12-04T20:52:22.877Z,4.05
2022-12-04T20:54:53.157Z,3.70
2022-12-04T20:57:20.017Z,3.97
2022-12-04T20:59:46.894Z,4.15
2022-12-04T21:02:14.001Z,3.88
2022-12-04T21:04:41.309Z,3.83
2022-12-04T21:07:08.222Z,3.85
2022-12-04T21:09:35.036Z,3.90
2022-12-04T21:12:02.600Z,3.53
2022-12-04T21:14:50.543Z,3.67
2022-12-04T21:17:19.772Z,4.13
2022-12-04T21:19:49.161Z,3.90
2022-12-04T21:22:17.705Z,3.85
2022-12-04T21:24:44.572Z,3.45
2022-12-04T21:27:15.821Z,3.30
2022-12-04T21:29:47.363Z,3.83
2022-12-04T21:32:14.141Z,3.60
2022-12-04T21:34:41.081Z,3.10
2022-12-04T21:37:08.026Z,3.15
2022-12-04T21:39:36.151Z,3.03
2022-12-04T21:42:22.172Z,2.92
2022-12-04T21:44:48.977Z,3.22
2022-12-04T21:47:15.996Z,3.17
2022-12-04T21:49:42.925Z,3.38
2022-12-04T21:52:09.985Z,2.50
2022-12-04T21:54:36.779Z,2.70
2022-12-04T21:57:03.664Z,3.08
2022-12-04T21:59:30.663Z,2.72
2022-12-04T22:01:57.920Z,3.08
2022-12-04T22:04:25.072Z,2.75
2022-12-04T22:06:51.770Z,2.40
2022-12-04T22:09:18.801Z,2.60
2022-12-04T22:11:46.023Z,2.88
2022-12-04T22:14:13.261Z,2.83
2022-12-04T22:16:43.364Z,2.70
2022-12-04T22:19:12.138Z,2.80
2022-12-04T22:21:39.668Z,2.97
2022-12-04T22:24:06.955Z,2.75
2022-12-04T22:26:34.016Z,2.97
2022-12-04T22:29:01.021Z,2.95
2022-12-04T22:31:29.653Z,2.65
2022-12-04T22:33:58.844Z,2.47
2022-12-04T22:36:29.392Z,2.30
2022-12-04T22:39:09.236Z,2.33
2022-12-04T22:41:36.487Z,2.53
2022-12-04T22:44:03.599Z,2.55
2022-12-04T22:46:30.913Z,2.42
2022-12-04T22:48:58.816Z,2.85
2022-12-04T22:51:25.562Z,2.67
2022-12-04T22:53:55.734Z,2.67
2022-12-04T22:56:30.949Z,2.60
2022-12-04T22:58:59.325Z,2.60
2022-12-04T23:01:28.896Z,2.83
2022-12-04T23:03:56.232Z,2.42
2022-12-04T23:06:26.096Z,2.33
2022-12-04T23:08:58.292Z,2.72
2022-12-04T23:11:26.090Z,2.35
2022-12-04T23:14:00.417Z,2.70
2022-12-04T23:16:29.574Z,2.50
2022-12-04T23:18:58.974Z,2.90
2022-12-04T23:21:27.643Z,2.78
2022-12-04T23:23:55.802Z,2.80
2022-12-04T23:26:26.241Z,2.67
2022-12-04T23:28:53.501Z,3.10
2022-12-04T23:31:20.453Z,2.90
2022-12-04T23:33:47.628Z,2.83
2022-12-04T23:36:15.240Z,2.72
2022-12-04T23:38:43.655Z,2.80
2022-12-04T23:41:18.863Z,3.03
2022-12-04T23:43:47.082Z,3.10
2022-12-04T23:46:18.736Z,3.03
2022-12-04T23:48:45.870Z,3.00
2022-12-04T23:51:15.814Z,2.90
2022-12-04T23:53:43.314Z,2.92
2022-12-04T23:56:22.060Z,2.85
2022-12-04T23:58:50.969Z,3.40
